sensor_id;sensor_type;location;lat;lon;timestamp;P1;durP1;ratioP1;P2;durP2;ratioP2
16824;SDS011;8529;48.108;-1.706;2023-12-20T00:02:15;8.23;;;2.25;;
16824;SDS011;8529;48.108;-1.706;2023-12-20T00:04:42;8.43;;;4.18;;
16824;SDS011;8529;48.108;-1.706;2023-12-20T00:07:09;7.95;;;2.78;;
16824;SDS011;8529;48.108;-1.706;2023-12-20T00:09:37;8.05;;;2.55;;
16824;SDS011;8529;48.108;-1.706;2023-12-20T00:12:04;7.25;;;2.38;;
16824;SDS011;8529;48.108;-1.706;2023-12-20T00:14:31;6.10;;;2.33;;
16824;SDS011;8529;48.108;-1.706;2023-12-20T00:16:58;8.90;;;2.90;;
16824;SDS011;8529;48.108;-1.706;2023-12-20T00:19:27;9.40;;;3.28;;
16824;SDS011;8529;48.108;-1.706;2023-12-20T00:21:54;7.43;;;3.78;;
16824;SDS011;8529;48.108;-1.706;2023-12-20T00:24:21;14.63;;;3.47;;
16824;SDS011;8529;48.108;-1.706;2023-12-20T00:26:48;9.52;;;3.67;;
16824;SDS011;8529;48.108;-1.706;2023-12-20T00:29:16;9.52;;;4.55;;
16824;SDS011;8529;48.108;-1.706;2023-12-20T00:31:43;14.48;;;4.53;;
16824;SDS011;8529;48.108;-1.706;2023-12-20T00:34:10;12.63;;;4.70;;
16824;SDS011;8529;48.108;-1.706;2023-12-20T00:36:39;12.57;;;4.00;;
16824;SDS011;8529;48.108;-1.706;2023-12-20T00:39:06;10.52;;;3.90;;
16824;SDS011;8529;48.108;-1.706;2023-12-20T00:41:33;12.32;;;3.25;;
16824;SDS011;8529;48.108;-1.706;2023-12-20T00:44:00;8.38;;;2.47;;
16824;SDS011;8529;48.108;-1.706;2023-12-20T00:46:28;6.25;;;2.08;;
16824;SDS011;8529;48.108;-1.706;2023-12-20T00:48:55;7.18;;;2.05;;
16824;SDS011;8529;48.108;-1.706;2023-12-20T00:51:22;4.78;;;1.48;;
16824;SDS011;8529;48.108;-1.706;2023-12-20T00:53:50;5.18;;;1.60;;
16824;SDS011;8529;48.108;-1.706;2023-12-20T00:56:19;6.18;;;1.70;;
16824;SDS011;8529;48.108;-1.706;2023-12-20T00:58:47;8.38;;;2.13;;
16824;SDS011;8529;48.108;-1.706;2023-12-20T01:01:14;3.90;;;1.60;;
16824;SDS011;8529;48.108;-1.706;2023-12-20T01:03:42;6.60;;;1.77;;
16824;SDS011;8529;48.108;-1.706;2023-12-20T01:06:09;4.35;;;1.60;;
16824;SDS011;8529;48.108;-1.706;2023-12-20T01:08:37;6.47;;;1.60;;
16824;SDS011;8529;48.108;-1.706;2023-12-20T01:11:05;7.97;;;1.60;;
16824;SDS011;8529;48.108;-1.706;2023-12-20T01:13:32;4.35;;;1.90;;
16824;SDS011;8529;48.108;-1.706;2023-12-20T01:16:00;7.97;;;1.85;;
16824;SDS011;8529;48.108;-1.706;2023-12-20T01:18:27;4.93;;;1.70;;
16824;SDS011;8529;48.108;-1.706;2023-12-20T01:20:55;8.57;;;2.60;;
16824;SDS011;8529;48.108;-1.706;2023-12-20T01:23:22;6.15;;;1.75;;
16824;SDS011;8529;48.108;-1.706;2023-12-20T01:25:49;8.73;;;2.05;;
16824;SDS011;8529;48.108;-1.706;2023-12-20T01:28:17;6.28;;;2.20;;
16824;SDS011;8529;48.108;-1.706;2023-12-20T01:30:44;7.15;;;3.47;;
16824;SDS011;8529;48.108;-1.706;2023-12-20T01:33:12;11.50;;;4.00;;
16824;SDS011;8529;48.108;-1.706;2023-12-20T01:35:39;10.95;;;5.75;;
16824;SDS011;8529;48.108;-1.706;2023-12-20T01:38:06;10.15;;;3.70;;
16824;SDS011;8529;48.108;-1.706;2023-12-20T01:40:33;11.40;;;2.25;;
16824;SDS011;8529;48.108;-1.706;2023-12-20T01:43:01;7.90;;;2.22;;
16824;SDS011;8529;48.108;-1.706;2023-12-20T01:45:29;5.50;;;1.98;;
16824;SDS011;8529;48.108;-1.706;2023-12-20T01:47:57;6.93;;;2.05;;
16824;SDS011;8529;48.108;-1.706;2023-12-20T01:50:25;7.90;;;2.08;;
16824;SDS011;8529;48.108;-1.706;2023-12-20T01:52:52;6.75;;;2.20;;
16824;SDS011;8529;48.108;-1.706;2023-12-20T01:55:22;6.30;;;2.30;;
16824;SDS011;8529;48.108;-1.706;2023-12-20T01:57:49;8.02;;;1.73;;
16824;SDS011;8529;48.108;-1.706;2023-12-20T02:00:17;6.10;;;1.70;;
16824;SDS011;8529;48.108;-1.706;2023-12-20T02:02:49;6.78;;;2.13;;
16824;SDS011;8529;48.108;-1.706;2023-12-20T02:05:17;5.13;;;2.03;;
16824;SDS011;8529;48.108;-1.706;2023-12-20T02:07:44;7.95;;;1.80;;
16824;SDS011;8529;48.108;-1.706;2023-12-20T02:10:10;8.35;;;2.05;;
16824;SDS011;8529;48.108;-1.706;2023-12-20T02:12:38;7.07;;;1.50;;
16824;SDS011;8529;48.108;-1.706;2023-12-20T02:15:05;6.35;;;1.80;;
16824;SDS011;8529;48.108;-1.706;2023-12-20T02:17:32;6.13;;;1.95;;
16824;SDS011;8529;48.108;-1.706;2023-12-20T02:20:01;4.57;;;1.50;;
16824;SDS011;8529;48.108;-1.706;2023-12-20T02:22:31;4.57;;;1.88;;
16824;SDS011;8529;48.108;-1.706;2023-12-20T02:24:58;9.10;;;2.70;;
16824;SDS011;8529;48.108;-1.706;2023-12-20T02:27:25;9.95;;;2.20;;
16824;SDS011;8529;48.108;-1.706;2023-12-20T02:29:52;6.38;;;2.30;;
16824;SDS011;8529;48.108;-1.706;2023-12-20T02:32:19;8.23;;;2.22;;
16824;SDS011;8529;48.108;-1.706;2023-12-20T02:34:47;8.27;;;2.58;;
16824;SDS011;8529;48.108;-1.706;2023-12-20T02:37:15;7.57;;;2.63;;
16824;SDS011;8529;48.108;-1.706;2023-12-20T02:39:43;9.90;;;2.30;;
16824;SDS011;8529;48.108;-1.706;2023-12-20T02:42:10;5.72;;;2.10;;
16824;SDS011;8529;48.108;-1.706;2023-12-20T02:44:37;11.27;;;2.92;;
16824;SDS011;8529;48.108;-1.706;2023-12-20T02:47:05;9.18;;;1.90;;
16824;SDS011;8529;48.108;-1.706;2023-12-20T02:49:32;7.90;;;1.80;;
16824;SDS011;8529;48.108;-1.706;2023-12-20T02:51:59;6.43;;;1.75;;
16824;SDS011;8529;48.108;-1.706;2023-12-20T02:54:26;4.60;;;1.45;;
16824;SDS011;8529;48.108;-1.706;2023-12-20T02:56:54;6.47;;;1.90;;
16824;SDS011;8529;48.108;-1.706;2023-12-20T02:59:22;6.05;;;1.98;;
16824;SDS011;8529;48.108;-1.706;2023-12-20T03:01:49;6.30;;;1.35;;
16824;SDS011;8529;48.108;-1.706;2023-12-20T03:04:16;6.43;;;2.10;;
16824;SDS011;8529;48.108;-1.706;2023-12-20T03:06:43;7.70;;;1.80;;
16824;SDS011;8529;48.108;-1.706;2023-12-20T03:09:10;7.50;;;1.73;;
16824;SDS011;8529;48.108;-1.706;2023-12-20T03:11:37;10.55;;;1.70;;
16824;SDS011;8529;48.108;-1.706;2023-12-20T03:14:06;6.15;;;1.60;;
16824;SDS011;8529;48.108;-1.706;2023-12-20T03:16:33;4.35;;;1.27;;
16824;SDS011;8529;48.108;-1.706;2023-12-20T03:19:00;10.25;;;1.70;;
16824;SDS011;8529;48.108;-1.706;2023-12-20T03:21:27;5.10;;;1.30;;
16824;SDS011;8529;48.108;-1.706;2023-12-20T03:23:54;5.40;;;1.90;;
16824;SDS011;8529;48.108;-1.706;2023-12-20T03:26:22;4.38;;;1.70;;
16824;SDS011;8529;48.108;-1.706;2023-12-20T03:28:49;7.18;;;1.52;;
16824;SDS011;8529;48.108;-1.706;2023-12-20T03:31:18;2.97;;;1.33;;
16824;SDS011;8529;48.108;-1.706;2023-12-20T03:33:46;6.90;;;1.52;;
16824;SDS011;8529;48.108;-1.706;2023-12-20T03:36:13;6.70;;;1.45;;
16824;SDS011;8529;48.108;-1.706;2023-12-20T03:38:40;3.72;;;1.23;;
16824;SDS011;8529;48.108;-1.706;2023-12-20T03:41:07;7.55;;;1.50;;
16824;SDS011;8529;48.108;-1.706;2023-12-20T03:43:35;4.13;;;1.27;;
16824;SDS011;8529;48.108;-1.706;2023-12-20T03:46:02;5.07;;;1.47;;
16824;SDS011;8529;48.108;-1.706;2023-12-20T03:48:31;4.10;;;1.30;;
16824;SDS011;8529;48.108;-1.706;2023-12-20T03:50:58;4.72;;;1.33;;
16824;SDS011;8529;48.108;-1.706;2023-12-20T03:53:25;5.30;;;1.30;;
16824;SDS011;8529;48.108;-1.706;2023-12-20T03:55:52;4.77;;;1.50;;
16824;SDS011;8529;48.108;-1.706;2023-12-20T03:58:19;3.97;;;1.70;;
16824;SDS011;8529;48.108;-1.706;2023-12-20T04:00:46;5.97;;;1.45;;
16824;SDS011;8529;48.108;-1.706;2023-12-20T04:03:14;5.20;;;1.60;;
16824;SDS011;8529;48.108;-1.706;2023-12-20T04:05:42;8.55;;;1.35;;
16824;SDS011;8529;48.108;-1.706;2023-12-20T04:08:09;5.10;;;1.53;;
16824;SDS011;8529;48.108;-1.706;2023-12-20T04:10:36;6.50;;;1.73;;
16824;SDS011;8529;48.108;-1.706;2023-12-20T04:13:04;4.77;;;1.50;;
16824;SDS011;8529;48.108;-1.706;2023-12-20T04:15:31;5.28;;;1.38;;
16824;SDS011;8529;48.108;-1.706;2023-12-20T04:17:58;5.57;;;1.53;;
16824;SDS011;8529;48.108;-1.706;2023-12-20T04:20:25;5.30;;;1.50;;
16824;SDS011;8529;48.108;-1.706;2023-12-20T04:22:54;5.30;;;1.37;;
16824;SDS011;8529;48.108;-1.706;2023-12-20T04:25:21;7.67;;;1.43;;
16824;SDS011;8529;48.108;-1.706;2023-12-20T04:27:48;2.97;;;1.35;;
16824;SDS011;8529;48.108;-1.706;2023-12-20T04:30:15;11.35;;;2.20;;
16824;SDS011;8529;48.108;-1.706;2023-12-20T04:32:42;3.92;;;1.27;;
16824;SDS011;8529;48.108;-1.706;2023-12-20T04:35:09;6.35;;;1.30;;
16824;SDS011;8529;48.108;-1.706;2023-12-20T04:37:36;2.90;;;1.50;;
16824;SDS011;8529;48.108;-1.706;2023-12-20T04:40:06;5.65;;;1.65;;
16824;SDS011;8529;48.108;-1.706;2023-12-20T04:42:33;1.93;;;1.00;;
16824;SDS011;8529;48.108;-1.706;2023-12-20T04:45:00;4.25;;;1.45;;
16824;SDS011;8529;48.108;-1.706;2023-12-20T04:47:28;6.15;;;1.52;;
16824;SDS011;8529;48.108;-1.706;2023-12-20T04:49:55;5.68;;;1.75;;
16824;SDS011;8529;48.108;-1.706;2023-12-20T04:52:22;5.32;;;1.92;;
16824;SDS011;8529;48.108;-1.706;2023-12-20T04:54:49;5.05;;;2.00;;
16824;SDS011;8529;48.108;-1.706;2023-12-20T04:57:18;6.47;;;2.42;;
16824;SDS011;8529;48.108;-1.706;2023-12-20T04:59:45;6.75;;;2.83;;
16824;SDS011;8529;48.108;-1.706;2023-12-20T05:02:12;6.93;;;2.60;;
16824;SDS011;8529;48.108;-1.706;2023-12-20T05:04:39;3.38;;;2.45;;
16824;SDS011;8529;48.108;-1.706;2023-12-20T05:07:06;6.07;;;1.83;;
16824;SDS011;8529;48.108;-1.706;2023-12-20T05:09:33;6.47;;;2.05;;
16824;SDS011;8529;48.108;-1.706;2023-12-20T05:12:01;8.32;;;2.33;;
16824;SDS011;8529;48.108;-1.706;2023-12-20T05:14:29;5.10;;;1.38;;
16824;SDS011;8529;48.108;-1.706;2023-12-20T05:16:56;4.35;;;1.40;;
16824;SDS011;8529;48.108;-1.706;2023-12-20T05:19:23;3.22;;;1.35;;
16824;SDS011;8529;48.108;-1.706;2023-12-20T05:21:51;4.60;;;1.40;;
16824;SDS011;8529;48.108;-1.706;2023-12-20T05:24:18;9.68;;;1.58;;
16824;SDS011;8529;48.108;-1.706;2023-12-20T05:26:45;7.53;;;1.80;;
16824;SDS011;8529;48.108;-1.706;2023-12-20T05:29:13;4.82;;;1.85;;
16824;SDS011;8529;48.108;-1.706;2023-12-20T05:31:41;5.32;;;1.42;;
16824;SDS011;8529;48.108;-1.706;2023-12-20T05:34:08;3.00;;;1.55;;
16824;SDS011;8529;48.108;-1.706;2023-12-20T05:36:35;11.65;;;2.00;;
16824;SDS011;8529;48.108;-1.706;2023-12-20T05:39:04;3.25;;;1.15;;
16824;SDS011;8529;48.108;-1.706;2023-12-20T05:41:32;2.45;;;1.45;;
16824;SDS011;8529;48.108;-1.706;2023-12-20T05:44:00;6.50;;;1.70;;
16824;SDS011;8529;48.108;-1.706;2023-12-20T05:46:27;3.97;;;1.30;;
16824;SDS011;8529;48.108;-1.706;2023-12-20T05:48:55;4.60;;;1.57;;
16824;SDS011;8529;48.108;-1.706;2023-12-20T05:51:23;5.07;;;1.42;;
16824;SDS011;8529;48.108;-1.706;2023-12-20T05:53:50;3.85;;;1.27;;
16824;SDS011;8529;48.108;-1.706;2023-12-20T05:56:17;6.13;;;1.60;;
16824;SDS011;8529;48.108;-1.706;2023-12-20T05:58:44;5.13;;;1.40;;
16824;SDS011;8529;48.108;-1.706;2023-12-20T06:01:10;5.07;;;2.22;;
16824;SDS011;8529;48.108;-1.706;2023-12-20T06:03:40;5.17;;;1.30;;
16824;SDS011;8529;48.108;-1.706;2023-12-20T06:06:09;7.77;;;1.50;;
16824;SDS011;8529;48.108;-1.706;2023-12-20T06:08:37;3.63;;;1.48;;
16824;SDS011;8529;48.108;-1.706;2023-12-20T06:11:05;3.05;;;1.50;;
16824;SDS011;8529;48.108;-1.706;2023-12-20T06:13:32;3.85;;;1.80;;
16824;SDS011;8529;48.108;-1.706;2023-12-20T06:15:59;7.38;;;1.73;;
16824;SDS011;8529;48.108;-1.706;2023-12-20T06:18:26;9.05;;;2.08;;
16824;SDS011;8529;48.108;-1.706;2023-12-20T06:20:54;6.78;;;1.98;;
16824;SDS011;8529;48.108;-1.706;2023-12-20T06:23:23;5.22;;;1.63;;
16824;SDS011;8529;48.108;-1.706;2023-12-20T06:25:50;5.95;;;1.80;;
16824;SDS011;8529;48.108;-1.706;2023-12-20T06:28:17;8.05;;;1.90;;
16824;SDS011;8529;48.108;-1.706;2023-12-20T06:30:44;8.55;;;2.00;;
16824;SDS011;8529;48.108;-1.706;2023-12-20T06:33:12;9.68;;;1.88;;
16824;SDS011;8529;48.108;-1.706;2023-12-20T06:35:39;5.35;;;1.75;;
16824;SDS011;8529;48.108;-1.706;2023-12-20T06:38:06;5.35;;;1.80;;
16824;SDS011;8529;48.108;-1.706;2023-12-20T06:40:35;4.53;;;1.95;;
16824;SDS011;8529;48.108;-1.706;2023-12-20T06:43:02;8.77;;;1.98;;
16824;SDS011;8529;48.108;-1.706;2023-12-20T06:45:31;6.93;;;1.92;;
16824;SDS011;8529;48.108;-1.706;2023-12-20T06:47:59;12.52;;;2.42;;
16824;SDS011;8529;48.108;-1.706;2023-12-20T06:50:26;6.78;;;2.80;;
16824;SDS011;8529;48.108;-1.706;2023-12-20T06:52:53;6.07;;;1.90;;
16824;SDS011;8529;48.108;-1.706;2023-12-20T06:55:20;7.35;;;2.47;;
16824;SDS011;8529;48.108;-1.706;2023-12-20T06:57:49;5.13;;;1.65;;
16824;SDS011;8529;48.108;-1.706;2023-12-20T07:00:16;8.30;;;2.97;;
16824;SDS011;8529;48.108;-1.706;2023-12-20T07:02:45;9.88;;;2.10;;
16824;SDS011;8529;48.108;-1.706;2023-12-20T07:05:15;4.65;;;2.10;;
16824;SDS011;8529;48.108;-1.706;2023-12-20T07:07:44;8.57;;;2.50;;
16824;SDS011;8529;48.108;-1.706;2023-12-20T07:10:11;5.88;;;2.28;;
16824;SDS011;8529;48.108;-1.706;2023-12-20T07:12:39;15.93;;;2.67;;
16824;SDS011;8529;48.108;-1.706;2023-12-20T07:15:08;5.57;;;2.05;;
16824;SDS011;8529;48.108;-1.706;2023-12-20T07:17:35;9.10;;;2.33;;
16824;SDS011;8529;48.108;-1.706;2023-12-20T07:20:03;6.15;;;2.85;;
16824;SDS011;8529;48.108;-1.706;2023-12-20T07:22:31;9.20;;;2.70;;
16824;SDS011;8529;48.108;-1.706;2023-12-20T07:24:59;7.75;;;2.17;;
16824;SDS011;8529;48.108;-1.706;2023-12-20T07:27:26;6.95;;;2.05;;
16824;SDS011;8529;48.108;-1.706;2023-12-20T07:29:53;10.00;;;2.63;;
16824;SDS011;8529;48.108;-1.706;2023-12-20T07:32:21;8.75;;;2.40;;
16824;SDS011;8529;48.108;-1.706;2023-12-20T07:34:49;7.22;;;2.95;;
16824;SDS011;8529;48.108;-1.706;2023-12-20T07:37:16;9.75;;;3.08;;
16824;SDS011;8529;48.108;-1.706;2023-12-20T07:39:43;8.35;;;2.72;;
16824;SDS011;8529;48.108;-1.706;2023-12-20T07:42:10;5.93;;;1.83;;
16824;SDS011;8529;48.108;-1.706;2023-12-20T07:44:37;7.25;;;1.90;;
16824;SDS011;8529;48.108;-1.706;2023-12-20T07:47:04;6.80;;;2.30;;
16824;SDS011;8529;48.108;-1.706;2023-12-20T07:49:33;10.25;;;2.65;;
16824;SDS011;8529;48.108;-1.706;2023-12-20T07:52:00;11.50;;;4.80;;
16824;SDS011;8529;48.108;-1.706;2023-12-20T07:54:27;9.95;;;4.03;;
16824;SDS011;8529;48.108;-1.706;2023-12-20T07:56:55;6.65;;;2.80;;
16824;SDS011;8529;48.108;-1.706;2023-12-20T07:59:22;11.95;;;4.40;;
16824;SDS011;8529;48.108;-1.706;2023-12-20T08:01:49;11.55;;;3.08;;
16824;SDS011;8529;48.108;-1.706;2023-12-20T08:04:16;7.68;;;3.00;;
16824;SDS011;8529;48.108;-1.706;2023-12-20T08:06:45;8.52;;;3.55;;
16824;SDS011;8529;48.108;-1.706;2023-12-20T08:09:12;9.70;;;3.42;;
16824;SDS011;8529;48.108;-1.706;2023-12-20T08:11:39;14.88;;;3.97;;
16824;SDS011;8529;48.108;-1.706;2023-12-20T08:14:06;7.57;;;3.13;;
16824;SDS011;8529;48.108;-1.706;2023-12-20T08:16:33;12.35;;;3.17;;
16824;SDS011;8529;48.108;-1.706;2023-12-20T08:19:00;6.93;;;3.33;;
16824;SDS011;8529;48.108;-1.706;2023-12-20T08:21:27;6.28;;;2.90;;
16824;SDS011;8529;48.108;-1.706;2023-12-20T08:23:56;5.55;;;2.80;;
16824;SDS011;8529;48.108;-1.706;2023-12-20T08:26:25;6.97;;;2.33;;
16824;SDS011;8529;48.108;-1.706;2023-12-20T08:28:52;6.07;;;2.28;;
16824;SDS011;8529;48.108;-1.706;2023-12-20T08:31:20;6.22;;;2.40;;
16824;SDS011;8529;48.108;-1.706;2023-12-20T08:33:47;5.25;;;2.35;;
16824;SDS011;8529;48.108;-1.706;2023-12-20T08:36:15;6.82;;;2.58;;
16824;SDS011;8529;48.108;-1.706;2023-12-20T08:38:43;4.43;;;1.75;;
16824;SDS011;8529;48.108;-1.706;2023-12-20T08:41:12;3.42;;;2.05;;
16824;SDS011;8529;48.108;-1.706;2023-12-20T08:43:39;6.05;;;2.17;;
16824;SDS011;8529;48.108;-1.706;2023-12-20T08:46:06;3.97;;;1.88;;
16824;SDS011;8529;48.108;-1.706;2023-12-20T08:48:34;10.77;;;2.55;;
16824;SDS011;8529;48.108;-1.706;2023-12-20T08:51:02;13.95;;;3.65;;
16824;SDS011;8529;48.108;-1.706;2023-12-20T08:53:32;9.25;;;3.00;;
16824;SDS011;8529;48.108;-1.706;2023-12-20T08:55:59;7.57;;;4.10;;
16824;SDS011;8529;48.108;-1.706;2023-12-20T08:58:28;11.77;;;3.55;;
16824;SDS011;8529;48.108;-1.706;2023-12-20T09:00:55;6.97;;;2.75;;
16824;SDS011;8529;48.108;-1.706;2023-12-20T09:03:23;7.18;;;2.58;;
16824;SDS011;8529;48.108;-1.706;2023-12-20T09:05:50;7.40;;;2.70;;
16824;SDS011;8529;48.108;-1.706;2023-12-20T09:08:17;12.30;;;3.67;;
16824;SDS011;8529;48.108;-1.706;2023-12-20T09:10:44;7.82;;;2.00;;
16824;SDS011;8529;48.108;-1.706;2023-12-20T09:13:12;11.55;;;3.15;;
16824;SDS011;8529;48.108;-1.706;2023-12-20T09:15:40;6.40;;;2.17;;
16824;SDS011;8529;48.108;-1.706;2023-12-20T09:18:07;9.77;;;4.53;;
16824;SDS011;8529;48.108;-1.706;2023-12-20T09:20:35;17.45;;;6.18;;
16824;SDS011;8529;48.108;-1.706;2023-12-20T09:23:02;11.60;;;5.18;;
16824;SDS011;8529;48.108;-1.706;2023-12-20T09:25:29;9.38;;;3.97;;
16824;SDS011;8529;48.108;-1.706;2023-12-20T09:27:56;6.97;;;3.22;;
16824;SDS011;8529;48.108;-1.706;2023-12-20T09:30:23;14.43;;;3.33;;
16824;SDS011;8529;48.108;-1.706;2023-12-20T09:32:52;4.40;;;2.35;;
16824;SDS011;8529;48.108;-1.706;2023-12-20T09:35:19;10.07;;;2.28;;
16824;SDS011;8529;48.108;-1.706;2023-12-20T09:37:46;8.48;;;1.83;;
16824;SDS011;8529;48.108;-1.706;2023-12-20T09:40:13;6.47;;;2.50;;
16824;SDS011;8529;48.108;-1.706;2023-12-20T09:42:43;9.10;;;2.90;;
16824;SDS011;8529;48.108;-1.706;2023-12-20T09:45:14;10.80;;;2.88;;
16824;SDS011;8529;48.108;-1.706;2023-12-20T09:47:42;10.02;;;2.83;;
16824;SDS011;8529;48.108;-1.706;2023-12-20T09:50:12;11.65;;;2.90;;
16824;SDS011;8529;48.108;-1.706;2023-12-20T09:52:39;11.02;;;2.25;;
16824;SDS011;8529;48.108;-1.706;2023-12-20T09:55:07;7.10;;;2.38;;
16824;SDS011;8529;48.108;-1.706;2023-12-20T09:57:34;8.40;;;2.40;;
16824;SDS011;8529;48.108;-1.706;2023-12-20T10:00:02;7.40;;;2.65;;
16824;SDS011;8529;48.108;-1.706;2023-12-20T10:02:29;8.93;;;2.17;;
16824;SDS011;8529;48.108;-1.706;2023-12-20T10:04:57;6.60;;;2.63;;
16824;SDS011;8529;48.108;-1.706;2023-12-20T10:07:26;7.30;;;2.30;;
16824;SDS011;8529;48.108;-1.706;2023-12-20T10:09:54;9.60;;;2.47;;
16824;SDS011;8529;48.108;-1.706;2023-12-20T10:12:22;9.55;;;2.65;;
16824;SDS011;8529;48.108;-1.706;2023-12-20T10:14:49;8.35;;;3.42;;
16824;SDS011;8529;48.108;-1.706;2023-12-20T10:17:16;8.00;;;2.00;;
16824;SDS011;8529;48.108;-1.706;2023-12-20T10:19:43;6.45;;;2.20;;
16824;SDS011;8529;48.108;-1.706;2023-12-20T10:22:10;10.23;;;2.17;;
16824;SDS011;8529;48.108;-1.706;2023-12-20T10:24:39;8.23;;;3.22;;
16824;SDS011;8529;48.108;-1.706;2023-12-20T10:27:07;12.88;;;4.07;;
16824;SDS011;8529;48.108;-1.706;2023-12-20T10:29:35;10.00;;;2.30;;
16824;SDS011;8529;48.108;-1.706;2023-12-20T10:34:44;10.48;;;2.08;;
16824;SDS011;8529;48.108;-1.706;2023-12-20T10:37:11;8.07;;;2.22;;
16824;SDS011;8529;48.108;-1.706;2023-12-20T10:39:40;13.15;;;2.15;;
16824;SDS011;8529;48.108;-1.706;2023-12-20T10:42:09;15.65;;;3.25;;
16824;SDS011;8529;48.108;-1.706;2023-12-20T10:44:36;13.32;;;2.58;;
16824;SDS011;8529;48.108;-1.706;2023-12-20T10:47:04;8.70;;;2.03;;
16824;SDS011;8529;48.108;-1.706;2023-12-20T10:49:32;12.40;;;2.35;;
16824;SDS011;8529;48.108;-1.706;2023-12-20T10:52:01;7.18;;;1.77;;
16824;SDS011;8529;48.108;-1.706;2023-12-20T10:54:29;8.23;;;2.40;;
16824;SDS011;8529;48.108;-1.706;2023-12-20T10:56:58;19.30;;;2.72;;
16824;SDS011;8529;48.108;-1.706;2023-12-20T10:59:25;6.32;;;2.38;;
16824;SDS011;8529;48.108;-1.706;2023-12-20T11:01:54;8.68;;;1.88;;
16824;SDS011;8529;48.108;-1.706;2023-12-20T11:04:23;12.27;;;2.25;;
16824;SDS011;8529;48.108;-1.706;2023-12-20T11:06:52;7.45;;;2.20;;
16824;SDS011;8529;48.108;-1.706;2023-12-20T11:09:22;8.65;;;2.40;;
16824;SDS011;8529;48.108;-1.706;2023-12-20T11:11:56;14.90;;;2.72;;
16824;SDS011;8529;48.108;-1.706;2023-12-20T11:14:25;12.35;;;3.63;;
16824;SDS011;8529;48.108;-1.706;2023-12-20T11:17:05;15.35;;;3.63;;
16824;SDS011;8529;48.108;-1.706;2023-12-20T11:19:32;8.73;;;2.72;;
16824;SDS011;8529;48.108;-1.706;2023-12-20T11:21:59;13.23;;;2.72;;
16824;SDS011;8529;48.108;-1.706;2023-12-20T11:24:26;7.13;;;2.75;;
16824;SDS011;8529;48.108;-1.706;2023-12-20T11:26:55;10.20;;;2.40;;
16824;SDS011;8529;48.108;-1.706;2023-12-20T11:29:33;9.73;;;2.28;;
16824;SDS011;8529;48.108;-1.706;2023-12-20T11:32:01;9.82;;;2.50;;
16824;SDS011;8529;48.108;-1.706;2023-12-20T11:34:31;8.57;;;2.58;;
16824;SDS011;8529;48.108;-1.706;2023-12-20T11:36:58;12.38;;;2.88;;
16824;SDS011;8529;48.108;-1.706;2023-12-20T11:39:26;16.08;;;3.95;;
16824;SDS011;8529;48.108;-1.706;2023-12-20T11:41:54;13.07;;;2.92;;
16824;SDS011;8529;48.108;-1.706;2023-12-20T11:44:22;9.90;;;2.30;;
16824;SDS011;8529;48.108;-1.706;2023-12-20T11:46:50;10.00;;;2.63;;
16824;SDS011;8529;48.108;-1.706;2023-12-20T11:49:22;9.05;;;2.58;;
16824;SDS011;8529;48.108;-1.706;2023-12-20T11:51:49;7.78;;;2.63;;
16824;SDS011;8529;48.108;-1.706;2023-12-20T11:54:17;7.10;;;2.53;;
16824;SDS011;8529;48.108;-1.706;2023-12-20T11:56:44;12.65;;;3.03;;
16824;SDS011;8529;48.108;-1.706;2023-12-20T11:59:11;7.95;;;2.40;;
16824;SDS011;8529;48.108;-1.706;2023-12-20T12:01:39;8.13;;;2.42;;
16824;SDS011;8529;48.108;-1.706;2023-12-20T12:04:07;11.52;;;4.70;;
16824;SDS011;8529;48.108;-1.706;2023-12-20T12:06:35;10.32;;;3.63;;
16824;SDS011;8529;48.108;-1.706;2023-12-20T12:09:03;9.77;;;2.53;;
16824;SDS011;8529;48.108;-1.706;2023-12-20T12:11:30;10.73;;;2.70;;
16824;SDS011;8529;48.108;-1.706;2023-12-20T12:13:57;13.68;;;2.60;;
16824;SDS011;8529;48.108;-1.706;2023-12-20T12:16:24;9.98;;;2.20;;
16824;SDS011;8529;48.108;-1.706;2023-12-20T12:18:55;7.03;;;2.15;;
16824;SDS011;8529;48.108;-1.706;2023-12-20T12:21:24;6.43;;;2.78;;
16824;SDS011;8529;48.108;-1.706;2023-12-20T12:23:51;11.52;;;2.13;;
16824;SDS011;8529;48.108;-1.706;2023-12-20T12:26:18;11.52;;;2.20;;
16824;SDS011;8529;48.108;-1.706;2023-12-20T12:28:45;5.45;;;2.00;;
16824;SDS011;8529;48.108;-1.706;2023-12-20T12:31:13;9.07;;;1.83;;
16824;SDS011;8529;48.108;-1.706;2023-12-20T12:33:40;10.20;;;2.08;;
16824;SDS011;8529;48.108;-1.706;2023-12-20T12:36:09;7.07;;;2.00;;
16824;SDS011;8529;48.108;-1.706;2023-12-20T12:38:38;11.00;;;2.97;;
16824;SDS011;8529;48.108;-1.706;2023-12-20T12:41:06;10.68;;;2.58;;
16824;SDS011;8529;48.108;-1.706;2023-12-20T12:43:33;7.43;;;2.10;;
16824;SDS011;8529;48.108;-1.706;2023-12-20T12:46:00;10.60;;;2.53;;
16824;SDS011;8529;48.108;-1.706;2023-12-20T12:48:27;7.82;;;2.20;;
16824;SDS011;8529;48.108;-1.706;2023-12-20T12:50:54;9.27;;;1.63;;
16824;SDS011;8529;48.108;-1.706;2023-12-20T12:53:24;12.65;;;2.17;;
16824;SDS011;8529;48.108;-1.706;2023-12-20T12:55:54;12.80;;;2.03;;
16824;SDS011;8529;48.108;-1.706;2023-12-20T12:58:21;9.00;;;1.95;;
16824;SDS011;8529;48.108;-1.706;2023-12-20T13:00:50;8.07;;;1.98;;
16824;SDS011;8529;48.108;-1.706;2023-12-20T13:03:17;14.45;;;2.38;;
16824;SDS011;8529;48.108;-1.706;2023-12-20T13:05:44;9.40;;;1.75;;
16824;SDS011;8529;48.108;-1.706;2023-12-20T13:08:12;8.88;;;2.08;;
16824;SDS011;8529;48.108;-1.706;2023-12-20T13:10:40;11.57;;;2.40;;
16824;SDS011;8529;48.108;-1.706;2023-12-20T13:13:08;14.95;;;2.63;;
16824;SDS011;8529;48.108;-1.706;2023-12-20T13:15:35;9.52;;;2.38;;
16824;SDS011;8529;48.108;-1.706;2023-12-20T13:18:03;8.10;;;2.03;;
16824;SDS011;8529;48.108;-1.706;2023-12-20T13:20:31;9.43;;;2.65;;
16824;SDS011;8529;48.108;-1.706;2023-12-20T13:22:58;10.43;;;2.17;;
16824;SDS011;8529;48.108;-1.706;2023-12-20T13:25:25;9.77;;;2.13;;
16824;SDS011;8529;48.108;-1.706;2023-12-20T13:27:53;13.52;;;2.97;;
16824;SDS011;8529;48.108;-1.706;2023-12-20T13:30:22;8.30;;;2.20;;
16824;SDS011;8529;48.108;-1.706;2023-12-20T13:32:49;6.53;;;1.92;;
16824;SDS011;8529;48.108;-1.706;2023-12-20T13:35:16;11.68;;;2.00;;
16824;SDS011;8529;48.108;-1.706;2023-12-20T13:37:44;9.38;;;2.20;;
16824;SDS011;8529;48.108;-1.706;2023-12-20T13:40:11;7.13;;;1.65;;
16824;SDS011;8529;48.108;-1.706;2023-12-20T13:42:38;6.97;;;2.10;;
16824;SDS011;8529;48.108;-1.706;2023-12-20T13:45:06;5.15;;;1.65;;
16824;SDS011;8529;48.108;-1.706;2023-12-20T13:47:35;5.43;;;1.42;;
16824;SDS011;8529;48.108;-1.706;2023-12-20T13:50:02;6.15;;;1.50;;
16824;SDS011;8529;48.108;-1.706;2023-12-20T13:52:30;6.25;;;1.77;;
16824;SDS011;8529;48.108;-1.706;2023-12-20T13:54:57;8.80;;;1.77;;
16824;SDS011;8529;48.108;-1.706;2023-12-20T13:57:24;10.07;;;2.05;;
16824;SDS011;8529;48.108;-1.706;2023-12-20T13:59:51;8.50;;;1.70;;
16824;SDS011;8529;48.108;-1.706;2023-12-20T14:02:19;10.43;;;2.10;;
16824;SDS011;8529;48.108;-1.706;2023-12-20T14:04:47;10.98;;;1.70;;
16824;SDS011;8529;48.108;-1.706;2023-12-20T14:07:14;8.60;;;2.17;;
16824;SDS011;8529;48.108;-1.706;2023-12-20T14:09:42;7.05;;;1.95;;
16824;SDS011;8529;48.108;-1.706;2023-12-20T14:12:10;11.73;;;1.92;;
16824;SDS011;8529;48.108;-1.706;2023-12-20T14:14:37;6.15;;;2.28;;
16824;SDS011;8529;48.108;-1.706;2023-12-20T14:17:05;9.88;;;1.98;;
16824;SDS011;8529;48.108;-1.706;2023-12-20T14:19:32;5.25;;;1.65;;
16824;SDS011;8529;48.108;-1.706;2023-12-20T14:22:00;4.38;;;1.48;;
16824;SDS011;8529;48.108;-1.706;2023-12-20T14:24:29;7.13;;;1.75;;
16824;SDS011;8529;48.108;-1.706;2023-12-20T14:26:56;5.72;;;1.58;;
16824;SDS011;8529;48.108;-1.706;2023-12-20T14:29:23;9.73;;;2.25;;
16824;SDS011;8529;48.108;-1.706;2023-12-20T14:31:51;7.63;;;2.05;;
16824;SDS011;8529;48.108;-1.706;2023-12-20T14:34:18;10.70;;;2.25;;
16824;SDS011;8529;48.108;-1.706;2023-12-20T14:36:45;9.55;;;1.98;;
16824;SDS011;8529;48.108;-1.706;2023-12-20T14:39:13;5.35;;;1.58;;
16824;SDS011;8529;48.108;-1.706;2023-12-20T14:41:42;9.48;;;2.20;;
16824;SDS011;8529;48.108;-1.706;2023-12-20T14:44:10;9.55;;;2.25;;
16824;SDS011;8529;48.108;-1.706;2023-12-20T14:46:37;8.25;;;2.50;;
16824;SDS011;8529;48.108;-1.706;2023-12-20T14:49:04;6.68;;;2.85;;
16824;SDS011;8529;48.108;-1.706;2023-12-20T14:51:32;7.00;;;2.90;;